CSCL Dalian — VRBH4 — position and weather

sailwx.info

Track history (hours):
 
Tides and Currents Weather Stations Pressure Air Temp Water Temp Dewpoint Dewpoint Depression Visibility Wind Speed Wind Dir Waves Ship Positions

CSCL Dalian

Last reported at 2016-Apr-30 12:33 UTC. Time now 2016-Apr-30 13:03 UTC.
Position N 33°26' W 118°09'.

Length 259.8 m; ; draft 11 m.

Type: Ship (hazmat cat A). MMSI: 477014600.

Date/timePositionNaut miles runAvg speedWind from/ knotsBaromVisibWave heightAir tempDewpointWater temp
2016-Apr-30 12:33N 33°26' W 118°09'1211.6
2016-Apr-30 11:33N 33°37' W 118°14'7 7.2
2016-Apr-30 10:33N 33°44' W 118°15'1 0.6
2016-Apr-30 09:28N 33°44' W 118°15'0 0.0
2016-Apr-30 08:28N 33°44' W 118°15'0 0.0
2016-Apr-30 07:28N 33°44' W 118°15'0 0.1
2016-Apr-30 06:28N 33°44' W 118°15'0 0.0
2016-Apr-30 05:31N 33°44' W 118°15'0 0.0
2016-Apr-30 04:22N 33°44' W 118°15'0 0.0
2016-Apr-30 03:28N 33°44' W 118°15'0 0.0
2016-Apr-30 02:28N 33°44' W 118°15'0 0.0
2016-Apr-30 01:31N 33°44' W 118°15'0 0.0
2016-Apr-30 00:31N 33°44' W 118°15'0 0.0
2016-Apr-29 23:31N 33°44' W 118°15'0 0.0
2016-Apr-29 22:31N 33°44' W 118°15'0 0.0
2016-Apr-29 21:31N 33°44' W 118°15'0 0.0
2016-Apr-29 19:33N 33°44' W 118°15'6 6.1
2016-Apr-29 18:33N 33°38' W 118°15'22811.2
2016-Apr-28 22:07N 35°44' W 122°06'712.7
2016-Apr-28 21:33N 35°50' W 122°11'1212.5
2016-Apr-28 20:33N 36°00' W 122°20'1313.1
2016-Apr-28 19:33N 36°12' W 122°27'1413.7
2016-Apr-28 18:33N 36°24' W 122°34'1313.1
2016-Apr-28 17:33N 36°37' W 122°40'1212.3
2016-Apr-28 16:33N 36°49' W 122°41'2712.4
2016-Apr-28 14:24N 37°15' W 122°43'1112.6
2016-Apr-28 13:33N 37°26' W 122°44'1312.8
2016-Apr-28 12:33N 37°39' W 122°44'1110.6
2016-Apr-28 11:33N 37°47' W 122°35'1110.8
2016-Apr-28 10:33N 37°48' W 122°21'2 2.2
2016-Apr-28 09:28N 37°48' W 122°18'0 0.0
2016-Apr-28 08:31N 37°48' W 122°18'0 0.0
2016-Apr-28 07:31N 37°48' W 122°18'0 0.0
2016-Apr-28 06:31N 37°48' W 122°18'0 0.0
2016-Apr-28 05:31N 37°48' W 122°18'0 0.0
2016-Apr-28 04:28N 37°48' W 122°18'0 0.0
2016-Apr-28 03:31N 37°48' W 122°18'0 0.0
2016-Apr-28 02:31N 37°48' W 122°18'0 0.0
2016-Apr-28 01:28N 37°48' W 122°18'0 0.0
2016-Apr-28 00:31N 37°48' W 122°18'0 0.0
2016-Apr-27 23:31N 37°48' W 122°18'0 0.0
2016-Apr-27 22:25N 37°48' W 122°18'0 0.1
2016-Apr-27 21:34N 37°48' W 122°18'3 3.0
2016-Apr-27 20:33N 37°48' W 122°22'3 3.4
2016-Apr-27 19:33N 37°45' W 122°20'0 0.1
2016-Apr-27 18:33N 37°45' W 122°20'0 0.2
2016-Apr-27 17:30N 37°45' W 122°21'0 0.1
2016-Apr-27 16:33N 37°45' W 122°21'0 0.0
2016-Apr-27 15:33N 37°45' W 122°21'0 0.0
2016-Apr-27 14:33N 37°45' W 122°21'0 0.0
2016-Apr-27 13:33N 37°45' W 122°21'0 0.0
2016-Apr-27 12:33N 37°45' W 122°20'0 0.1
2016-Apr-27 11:33N 37°45' W 122°20'0 0.1
2016-Apr-27 10:33N 37°45' W 122°20'0 0.1
2016-Apr-27 09:33N 37°45' W 122°20'0 0.0
2016-Apr-27 08:33N 37°45' W 122°20'0 0.0
2016-Apr-27 07:30N 37°45' W 122°20'0 0.0
2016-Apr-27 06:33N 37°45' W 122°20'0 0.0
2016-Apr-27 05:33N 37°45' W 122°20'0 0.1
2016-Apr-27 04:33N 37°45' W 122°20'0 0.1
2016-Apr-27 03:33N 37°45' W 122°20'0 0.0
2016-Apr-27 02:33N 37°45' W 122°20'0 0.1
2016-Apr-27 01:33N 37°45' W 122°20'0 0.0
2016-Apr-27 00:34N 37°45' W 122°20'0 0.1
2016-Apr-26 23:33N 37°45' W 122°20'0 0.0
2016-Apr-26 22:33N 37°45' W 122°20'0 0.0
2016-Apr-26 21:34N 37°45' W 122°20'7 7.0
2016-Apr-26 20:33N 37°49' W 122°27'1414.2
2016-Apr-26 19:33N 37°45' W 122°45'1210.1
2016-Apr-26 18:20N 37°51' W 122°58'7 8.3
2016-Apr-26 17:33N 37°55' W 123°05'9 9.2
2016-Apr-26 16:33N 38°00' W 123°14'10 9.7
2016-Apr-26 15:33N 38°08' W 123°22'1212.2
2016-Apr-26 14:33N 38°18' W 123°31'1211.8
2016-Apr-26 13:33N 38°27' W 123°41'44412.3
2016-Apr-25 01:27N 45°45' W 125°16'1212.7
2016-Apr-25 00:33N 45°56' W 125°16'1212.6
2016-Apr-24 23:34N 46°09' W 125°15'1312.5
2016-Apr-24 22:33N 46°21' W 125°16'1212.1
2016-Apr-24 21:33N 46°33' W 125°16'1312.6
2016-Apr-24 20:33N 46°46' W 125°17'1111.5
2016-Apr-24 19:33N 46°57' W 125°17'7113.0
2016-Apr-24 14:05N 48°08' W 125°15'712.5
2016-Apr-24 13:33N 48°15' W 125°15'1110.9
2016-Apr-24 12:34N 48°25' W 125°07'1110.8
2016-Apr-24 11:33N 48°31' W 124°53'4410.9
2016-Apr-24 07:29N 48°17' W 123°50'1213.1
2016-Apr-24 06:34N 48°15' W 123°32'1010.4
2016-Apr-24 05:34N 48°23' W 123°22'1413.7
2016-Apr-24 04:33N 48°36' W 123°14'1615.9
2016-Apr-24 03:33N 48°49' W 123°01'1919.3
2016-Apr-24 02:33N 49°03' W 123°22'10 9.7
2016-Apr-24 01:33N 49°06' W 123°08'10 9.6
2016-Apr-24 00:33N 49°11' W 122°55'0 0.2
2016-Apr-23 23:33N 49°11' W 122°55'0 0.0
2016-Apr-23 22:33N 49°11' W 122°55'0 0.0
2016-Apr-23 21:33N 49°11' W 122°55'0 0.0
2016-Apr-23 20:33N 49°11' W 122°55'0 0.0
2016-Apr-23 19:33N 49°11' W 122°55'0 0.0
2016-Apr-23 18:33N 49°11' W 122°55'0 0.0
2016-Apr-23 17:30N 49°11' W 122°55'0 0.0
2016-Apr-23 16:33N 49°11' W 122°55'0 0.0
2016-Apr-23 15:33N 49°11' W 122°55'0 0.0
2016-Apr-23 14:33N 49°11' W 122°55'0 0.0
2016-Apr-23 13:33N 49°11' W 122°55'0 0.0
2016-Apr-23 10:33N 49°11' W 122°55'0 0.0
2016-Apr-23 09:33N 49°11' W 122°55'0 0.0
2016-Apr-23 08:33N 49°11' W 122°55'0 0.0
2016-Apr-23 07:33N 49°11' W 122°55'0 0.0
2016-Apr-23 06:33N 49°11' W 122°55'0 0.0
2016-Apr-23 05:33N 49°11' W 122°55'0 0.0
2016-Apr-23 04:33N 49°11' W 122°55'0 0.0
2016-Apr-23 03:33N 49°11' W 122°55'0 0.0
2016-Apr-23 02:33N 49°11' W 122°55'0 0.0
2016-Apr-23 01:33N 49°11' W 122°55'0 0.0
2016-Apr-23 00:33N 49°11' W 122°55'0 0.0
2016-Apr-22 23:33N 49°11' W 122°55'1 1.5
2016-Apr-22 22:33N 49°10' W 122°56'10 9.7
2016-Apr-22 21:33N 49°07' W 123°10'7 7.1
2016-Apr-22 20:33N 49°04' W 123°20'1817.5
2016-Apr-22 19:33N 48°51' W 123°01'1514.7
2016-Apr-22 18:33N 48°39' W 123°14'1615.5
2016-Apr-22 17:33N 48°24' W 123°11'1212.3
2016-Apr-22 16:34N 48°17' W 123°26'1110.5
2016-Apr-22 15:33N 48°11' W 123°13'1716.8
2016-Apr-22 14:33N 48°11' W 122°48'1717.3
2016-Apr-22 13:33N 47°57' W 122°33'1515.5
2016-Apr-22 12:33N 47°43' W 122°27'1616.2
2016-Apr-22 11:33N 47°26' W 122°23'10 9.8
2016-Apr-22 10:32N 47°16' W 122°24'2 0.1
2016-Apr-21 15:09N 47°15' W 122°23'1 0.3
2016-Apr-21 11:33N 47°16' W 122°24'3 3.5
2016-Apr-21 10:34N 47°18' W 122°28'1313.3
2016-Apr-21 09:33N 47°31' W 122°26'1918.6
2016-Apr-21 08:34N 47°50' W 122°28'1818.1
2016-Apr-21 07:33N 48°06' W 122°40'1919.1
2016-Apr-21 06:33N 48°12' W 123°07'1413.9
2016-Apr-21 05:33N 48°11' W 123°28'1312.7
2016-Apr-21 04:33N 48°14' W 123°47'1312.7
2016-Apr-21 03:31N 48°17' W 124°06'3812.7
2016-Apr-21 00:30N 48°27' W 125°02'1314.1
2016-Apr-20 23:33N 48°15' W 125°10'1212.4
2016-Apr-20 22:34N 48°03' W 125°14'1413.9
2016-Apr-20 21:33N 47°49' W 125°17'1413.5
2016-Apr-20 20:33N 47°36' W 125°17'1413.5
2016-Apr-20 19:33N 47°22' W 125°17'1413.7
2016-Apr-20 18:34N 47°08' W 125°16'1414.0
2016-Apr-20 17:33N 46°54' W 125°18'1413.6
2016-Apr-20 16:33N 46°41' W 125°16'1413.9
2016-Apr-20 15:33N 46°27' W 125°19'1414.0
2016-Apr-20 14:33N 46°13' W 125°21'1413.7
2016-Apr-20 13:33N 45°60' W 125°16'1414.0
2016-Apr-20 12:33N 45°46' W 125°16'  
Track history (hours):
 
Tides and Currents Weather Stations Pressure Air Temp Water Temp Dewpoint Dewpoint Depression Visibility Wind Speed Wind Dir Waves Ship Positions

CSCL Dalian

Last reported at 2016-Apr-30 12:33 UTC. Time now 2016-Apr-30 13:03 UTC.
Position N 33°26' W 118°09'.

Length 259.8 m; ; draft 11 m.

Type: Ship (hazmat cat A). MMSI: 477014600.

Date/timePositionNaut miles runAvg speedWind from/ knotsBaromVisibWave heightAir tempDewpointWater temp
2016-Apr-30 12:33N 33°26' W 118°09'1211.6
2016-Apr-30 11:33N 33°37' W 118°14'7 7.2
2016-Apr-30 10:33N 33°44' W 118°15'1 0.6
2016-Apr-30 09:28N 33°44' W 118°15'0 0.0
2016-Apr-30 08:28N 33°44' W 118°15'0 0.0
2016-Apr-30 07:28N 33°44' W 118°15'0 0.1
2016-Apr-30 06:28N 33°44' W 118°15'0 0.0
2016-Apr-30 05:31N 33°44' W 118°15'0 0.0
2016-Apr-30 04:22N 33°44' W 118°15'0 0.0
2016-Apr-30 03:28N 33°44' W 118°15'0 0.0
2016-Apr-30 02:28N 33°44' W 118°15'0 0.0
2016-Apr-30 01:31N 33°44' W 118°15'0 0.0
2016-Apr-30 00:31N 33°44' W 118°15'0 0.0
2016-Apr-29 23:31N 33°44' W 118°15'0 0.0
2016-Apr-29 22:31N 33°44' W 118°15'0 0.0
2016-Apr-29 21:31N 33°44' W 118°15'0 0.0
2016-Apr-29 19:33N 33°44' W 118°15'6 6.1
2016-Apr-29 18:33N 33°38' W 118°15'22811.2
2016-Apr-28 22:07N 35°44' W 122°06'712.7
2016-Apr-28 21:33N 35°50' W 122°11'1212.5
2016-Apr-28 20:33N 36°00' W 122°20'1313.1
2016-Apr-28 19:33N 36°12' W 122°27'1413.7
2016-Apr-28 18:33N 36°24' W 122°34'1313.1
2016-Apr-28 17:33N 36°37' W 122°40'1212.3
2016-Apr-28 16:33N 36°49' W 122°41'2712.4
2016-Apr-28 14:24N 37°15' W 122°43'1112.6
2016-Apr-28 13:33N 37°26' W 122°44'1312.8
2016-Apr-28 12:33N 37°39' W 122°44'1110.6
2016-Apr-28 11:33N 37°47' W 122°35'1110.8
2016-Apr-28 10:33N 37°48' W 122°21'2 2.2
2016-Apr-28 09:28N 37°48' W 122°18'0 0.0
2016-Apr-28 08:31N 37°48' W 122°18'0 0.0
2016-Apr-28 07:31N 37°48' W 122°18'0 0.0
2016-Apr-28 06:31N 37°48' W 122°18'0 0.0
2016-Apr-28 05:31N 37°48' W 122°18'0 0.0
2016-Apr-28 04:28N 37°48' W 122°18'0 0.0
2016-Apr-28 03:31N 37°48' W 122°18'0 0.0
2016-Apr-28 02:31N 37°48' W 122°18'0 0.0
2016-Apr-28 01:28N 37°48' W 122°18'0 0.0
2016-Apr-28 00:31N 37°48' W 122°18'0 0.0
2016-Apr-27 23:31N 37°48' W 122°18'0 0.0
2016-Apr-27 22:25N 37°48' W 122°18'0 0.1
2016-Apr-27 21:34N 37°48' W 122°18'3 3.0
2016-Apr-27 20:33N 37°48' W 122°22'3 3.4
2016-Apr-27 19:33N 37°45' W 122°20'0 0.1
2016-Apr-27 18:33N 37°45' W 122°20'0 0.2
2016-Apr-27 17:30N 37°45' W 122°21'0 0.1
2016-Apr-27 16:33N 37°45' W 122°21'0 0.0
2016-Apr-27 15:33N 37°45' W 122°21'0 0.0
2016-Apr-27 14:33N 37°45' W 122°21'0 0.0
2016-Apr-27 13:33N 37°45' W 122°21'0 0.0
2016-Apr-27 12:33N 37°45' W 122°20'0 0.1
2016-Apr-27 11:33N 37°45' W 122°20'0 0.1
2016-Apr-27 10:33N 37°45' W 122°20'0 0.1
2016-Apr-27 09:33N 37°45' W 122°20'0 0.0
2016-Apr-27 08:33N 37°45' W 122°20'0 0.0
2016-Apr-27 07:30N 37°45' W 122°20'0 0.0
2016-Apr-27 06:33N 37°45' W 122°20'0 0.0
2016-Apr-27 05:33N 37°45' W 122°20'0 0.1
2016-Apr-27 04:33N 37°45' W 122°20'0 0.1
2016-Apr-27 03:33N 37°45' W 122°20'0 0.0
2016-Apr-27 02:33N 37°45' W 122°20'0 0.1
2016-Apr-27 01:33N 37°45' W 122°20'0 0.0
2016-Apr-27 00:34N 37°45' W 122°20'0 0.1
2016-Apr-26 23:33N 37°45' W 122°20'0 0.0
2016-Apr-26 22:33N 37°45' W 122°20'0 0.0
2016-Apr-26 21:34N 37°45' W 122°20'7 7.0
2016-Apr-26 20:33N 37°49' W 122°27'1414.2
2016-Apr-26 19:33N 37°45' W 122°45'1210.1
2016-Apr-26 18:20N 37°51' W 122°58'7 8.3
2016-Apr-26 17:33N 37°55' W 123°05'9 9.2
2016-Apr-26 16:33N 38°00' W 123°14'10 9.7
2016-Apr-26 15:33N 38°08' W 123°22'1212.2
2016-Apr-26 14:33N 38°18' W 123°31'1211.8
2016-Apr-26 13:33N 38°27' W 123°41'44412.3
2016-Apr-25 01:27N 45°45' W 125°16'1212.7
2016-Apr-25 00:33N 45°56' W 125°16'1212.6
2016-Apr-24 23:34N 46°09' W 125°15'1312.5
2016-Apr-24 22:33N 46°21' W 125°16'1212.1
2016-Apr-24 21:33N 46°33' W 125°16'1312.6
2016-Apr-24 20:33N 46°46' W 125°17'1111.5
2016-Apr-24 19:33N 46°57' W 125°17'7113.0
2016-Apr-24 14:05N 48°08' W 125°15'712.5
2016-Apr-24 13:33N 48°15' W 125°15'1110.9
2016-Apr-24 12:34N 48°25' W 125°07'1110.8
2016-Apr-24 11:33N 48°31' W 124°53'4410.9
2016-Apr-24 07:29N 48°17' W 123°50'1213.1
2016-Apr-24 06:34N 48°15' W 123°32'1010.4
2016-Apr-24 05:34N 48°23' W 123°22'1413.7
2016-Apr-24 04:33N 48°36' W 123°14'1615.9
2016-Apr-24 03:33N 48°49' W 123°01'1919.3
2016-Apr-24 02:33N 49°03' W 123°22'10 9.7
2016-Apr-24 01:33N 49°06' W 123°08'10 9.6
2016-Apr-24 00:33N 49°11' W 122°55'0 0.2
2016-Apr-23 23:33N 49°11' W 122°55'0 0.0
2016-Apr-23 22:33N 49°11' W 122°55'0 0.0
2016-Apr-23 21:33N 49°11' W 122°55'0 0.0
2016-Apr-23 20:33N 49°11' W 122°55'0 0.0
2016-Apr-23 19:33N 49°11' W 122°55'0 0.0
2016-Apr-23 18:33N 49°11' W 122°55'0 0.0
2016-Apr-23 17:30N 49°11' W 122°55'0 0.0
2016-Apr-23 16:33N 49°11' W 122°55'0 0.0
2016-Apr-23 15:33N 49°11' W 122°55'0 0.0
2016-Apr-23 14:33N 49°11' W 122°55'0 0.0
2016-Apr-23 13:33N 49°11' W 122°55'0 0.0
2016-Apr-23 10:33N 49°11' W 122°55'0 0.0
2016-Apr-23 09:33N 49°11' W 122°55'0 0.0
2016-Apr-23 08:33N 49°11' W 122°55'0 0.0
2016-Apr-23 07:33N 49°11' W 122°55'0 0.0
2016-Apr-23 06:33N 49°11' W 122°55'0 0.0
2016-Apr-23 05:33N 49°11' W 122°55'0 0.0
2016-Apr-23 04:33N 49°11' W 122°55'0 0.0
2016-Apr-23 03:33N 49°11' W 122°55'0 0.0
2016-Apr-23 02:33N 49°11' W 122°55'0 0.0
2016-Apr-23 01:33N 49°11' W 122°55'0 0.0
2016-Apr-23 00:33N 49°11' W 122°55'0 0.0
2016-Apr-22 23:33N 49°11' W 122°55'1 1.5
2016-Apr-22 22:33N 49°10' W 122°56'10 9.7
2016-Apr-22 21:33N 49°07' W 123°10'7 7.1
2016-Apr-22 20:33N 49°04' W 123°20'1817.5
2016-Apr-22 19:33N 48°51' W 123°01'1514.7
2016-Apr-22 18:33N 48°39' W 123°14'1615.5
2016-Apr-22 17:33N 48°24' W 123°11'1212.3
2016-Apr-22 16:34N 48°17' W 123°26'1110.5
2016-Apr-22 15:33N 48°11' W 123°13'1716.8
2016-Apr-22 14:33N 48°11' W 122°48'1717.3
2016-Apr-22 13:33N 47°57' W 122°33'1515.5
2016-Apr-22 12:33N 47°43' W 122°27'1616.2
2016-Apr-22 11:33N 47°26' W 122°23'10 9.8
2016-Apr-22 10:32N 47°16' W 122°24'2 0.1
2016-Apr-21 15:09N 47°15' W 122°23'1 0.3
2016-Apr-21 11:33N 47°16' W 122°24'3 3.5
2016-Apr-21 10:34N 47°18' W 122°28'1313.3
2016-Apr-21 09:33N 47°31' W 122°26'1918.6
2016-Apr-21 08:34N 47°50' W 122°28'1818.1
2016-Apr-21 07:33N 48°06' W 122°40'1919.1
2016-Apr-21 06:33N 48°12' W 123°07'1413.9
2016-Apr-21 05:33N 48°11' W 123°28'1312.7
2016-Apr-21 04:33N 48°14' W 123°47'1312.7
2016-Apr-21 03:31N 48°17' W 124°06'3812.7
2016-Apr-21 00:30N 48°27' W 125°02'1314.1
2016-Apr-20 23:33N 48°15' W 125°10'1212.4
2016-Apr-20 22:34N 48°03' W 125°14'1413.9
2016-Apr-20 21:33N 47°49' W 125°17'1413.5
2016-Apr-20 20:33N 47°36' W 125°17'1413.5
2016-Apr-20 19:33N 47°22' W 125°17'1413.7
2016-Apr-20 18:34N 47°08' W 125°16'1414.0
2016-Apr-20 17:33N 46°54' W 125°18'1413.6
2016-Apr-20 16:33N 46°41' W 125°16'1413.9
2016-Apr-20 15:33N 46°27' W 125°19'1414.0
2016-Apr-20 14:33N 46°13' W 125°21'1413.7
2016-Apr-20 13:33N 45°60' W 125°16'1414.0
2016-Apr-20 12:33N 45°46' W 125°16'  

Dump ship's entire track history